Time;durP1;ratioP1;P1;durP2;ratioP2;P2;SDS_P1;SDS_P2;PMS_P1;PMS_P2;Temp;Humidity;BMP_temperature;BMP_pressure;BME280_temperature;BME280_humidity;BME280_pressure;Samples;Min_cycle;Max_cycle;Signal;HPM_P1;HPM_P2
2023/10/13 00:02:10;;;;;;;15.35;9.07;;;;;;;;;;5050736;28;20185;-66
2023/10/13 00:04:35;;;;;;;17.17;8.40;;;;;;;;;;5049052;28;20269;-65
2023/10/13 00:07:02;;;;;;;16.02;9.90;;;;;;;;;;5048869;28;20264;-66
2023/10/13 00:09:37;;;;;;;16.00;8.40;;;;;;;;;;5051071;28;20254;-66
2023/10/13 00:12:03;;;;;;;15.93;9.52;;;;;;;;;;5048420;28;20591;-66
2023/10/13 00:14:34;;;;;;;17.65;9.45;;;;;;;;;;5050389;28;20555;-66
2023/10/13 00:17:20;;;;;;;14.98;9.05;;;;;;;;;;5048895;28;20660;-65
2023/10/13 00:19:46;;;;;;;16.42;9.02;;;;;;;;;;5050260;28;20199;-65
2023/10/13 00:22:12;;;;;;;13.38;8.48;;;;;;;;;;5052074;28;20170;-66
2023/10/13 00:24:45;;;;;;;14.80;9.30;;;;;;;;;;5043796;28;20180;-66
2023/10/13 00:30:17;;;;;;;14.75;9.18;;;;;;;;;;5047467;28;20215;-66
2023/10/13 00:32:51;;;;;;;18.30;9.73;;;;;;;;;;5047929;28;20173;-64
2023/10/13 00:35:28;;;;;;;13.20;8.60;;;;;;;;;;5048454;28;20595;-66
2023/10/13 00:37:53;;;;;;;16.13;9.30;;;;;;;;;;5049249;28;20587;-66
2023/10/13 00:41:16;;;;;;;13.32;9.45;;;;;;;;;;5048573;28;20297;-66
2023/10/13 00:44:03;;;;;;;16.85;9.50;;;;;;;;;;5040650;28;20571;-66
2023/10/13 00:45:57;;;;;;;16.52;9.55;;;;;;;;;;5037186;28;20669;-66
2023/10/13 00:48:33;;;;;;;15.70;10.02;;;;;;;;;;5048587;28;20186;-66
2023/10/13 00:51:02;;;;;;;18.45;9.90;;;;;;;;;;5044822;28;20759;-67
2023/10/13 00:53:28;;;;;;;15.68;10.25;;;;;;;;;;5048109;28;20603;-66
2023/10/13 00:55:56;;;;;;;15.75;9.55;;;;;;;;;;5054378;28;20189;-66
2023/10/13 00:58:22;;;;;;;17.02;10.75;;;;;;;;;;5053869;28;20576;-66
2023/10/13 01:00:56;;;;;;;13.60;10.57;;;;;;;;;;5054452;28;20296;-66
2023/10/13 01:03:26;;;;;;;16.00;10.75;;;;;;;;;;5049825;28;20174;-66
2023/10/13 01:05:54;;;;;;;15.77;9.82;;;;;;;;;;5050960;28;20184;-66
2023/10/13 01:08:30;;;;;;;14.43;9.55;;;;;;;;;;5050133;28;20259;-66
2023/10/13 01:10:58;;;;;;;16.10;10.57;;;;;;;;;;5057792;28;20204;-66
2023/10/13 01:13:24;;;;;;;14.23;8.77;;;;;;;;;;5062643;28;20720;-66
2023/10/13 01:15:49;;;;;;;17.80;8.80;;;;;;;;;;5053743;28;20178;-66
2023/10/13 01:18:16;;;;;;;15.30;9.55;;;;;;;;;;5061859;28;20180;-66
2023/10/13 01:20:45;;;;;;;16.05;9.77;;;;;;;;;;5055727;28;20193;-65
2023/10/13 01:23:18;;;;;;;14.60;9.43;;;;;;;;;;5056367;28;20257;-66
2023/10/13 01:25:43;;;;;;;15.13;8.40;;;;;;;;;;5057525;28;20168;-67
2023/10/13 01:28:08;;;;;;;17.35;8.85;;;;;;;;;;5058936;28;20189;-65
2023/10/13 01:30:33;;;;;;;18.48;9.38;;;;;;;;;;5058169;28;20197;-65
2023/10/13 01:33:00;;;;;;;17.67;8.75;;;;;;;;;;5058891;28;20181;-66
2023/10/13 01:35:36;;;;;;;14.77;9.30;;;;;;;;;;5055858;28;20563;-65
2023/10/13 01:38:02;;;;;;;20.92;8.98;;;;;;;;;;5054828;28;20188;-65
2023/10/13 01:40:29;;;;;;;17.17;8.05;;;;;;;;;;5054396;28;20197;-65
2023/10/13 01:42:55;;;;;;;16.17;8.68;;;;;;;;;;5049398;28;20177;-65
2023/10/13 01:45:20;;;;;;;15.15;7.63;;;;;;;;;;5054905;28;20169;-65
2023/10/13 01:47:46;;;;;;;13.88;8.15;;;;;;;;;;5053475;28;20195;-65
2023/10/13 01:50:19;;;;;;;11.73;7.18;;;;;;;;;;5060262;28;20208;-65
2023/10/13 01:52:44;;;;;;;14.02;6.88;;;;;;;;;;5058727;28;20178;-66
2023/10/13 01:55:11;;;;;;;13.70;6.78;;;;;;;;;;5055436;28;20173;-66
2023/10/13 01:57:36;;;;;;;14.02;6.65;;;;;;;;;;5055584;28;20170;-65
2023/10/13 02:00:10;;;;;;;9.75;5.80;;;;;;;;;;5057338;28;20684;-66
2023/10/13 02:02:38;;;;;;;12.40;7.88;;;;;;;;;;5052254;28;20603;-65
2023/10/13 02:05:03;;;;;;;12.93;7.15;;;;;;;;;;5052424;28;20232;-65
2023/10/13 02:07:34;;;;;;;17.95;7.70;;;;;;;;;;5047931;28;20173;-65
2023/10/13 02:09:59;;;;;;;16.67;7.07;;;;;;;;;;5051460;28;20244;-66
2023/10/13 02:12:42;;;;;;;12.27;6.55;;;;;;;;;;5051117;28;20197;-67
2023/10/13 02:15:07;;;;;;;13.77;7.55;;;;;;;;;;5051375;28;20623;-66
2023/10/13 02:17:41;;;;;;;16.20;7.55;;;;;;;;;;5048975;28;20320;-67
2023/10/13 02:20:14;;;;;;;16.00;7.75;;;;;;;;;;5049873;28;20209;-66
2023/10/13 02:22:48;;;;;;;15.63;7.07;;;;;;;;;;5048616;28;20182;-66
2023/10/13 02:25:17;;;;;;;14.10;7.88;;;;;;;;;;5051765;28;20177;-66
2023/10/13 02:27:43;;;;;;;12.70;7.18;;;;;;;;;;5054195;28;20527;-66
2023/10/13 02:30:14;;;;;;;14.70;7.70;;;;;;;;;;5066329;22;20255;-66
2023/10/13 02:32:43;;;;;;;13.30;7.35;;;;;;;;;;5005373;28;20187;-65
2023/10/13 02:35:15;;;;;;;13.45;7.07;;;;;;;;;;5010137;28;20179;-66
2023/10/13 02:37:43;;;;;;;18.40;7.30;;;;;;;;;;5011134;28;20175;-66
2023/10/13 02:40:09;;;;;;;10.90;7.25;;;;;;;;;;5008670;28;20264;-67
2023/10/13 02:42:34;;;;;;;14.93;7.30;;;;;;;;;;5012125;28;20191;-67
2023/10/13 02:44:59;;;;;;;12.18;7.32;;;;;;;;;;5012669;28;20210;-65
2023/10/13 02:47:26;;;;;;;14.40;7.55;;;;;;;;;;5011245;28;20187;-66
2023/10/13 02:49:52;;;;;;;13.77;8.77;;;;;;;;;;5010404;28;20249;-67
2023/10/13 02:52:17;;;;;;;17.42;7.50;;;;;;;;;;5012596;28;20226;-67
2023/10/13 02:54:51;;;;;;;13.35;7.30;;;;;;;;;;5011983;28;20182;-66
2023/10/13 02:57:17;;;;;;;14.90;7.30;;;;;;;;;;5015181;28;20650;-67
2023/10/13 02:59:50;;;;;;;15.38;7.63;;;;;;;;;;5009903;28;20206;-66
2023/10/13 03:02:29;;;;;;;12.05;7.93;;;;;;;;;;5009780;28;20269;-66
2023/10/13 03:04:59;;;;;;;14.43;7.82;;;;;;;;;;5010257;28;20203;-66
2023/10/13 03:07:28;;;;;;;18.85;7.53;;;;;;;;;;5008288;28;20765;-66
2023/10/13 03:09:57;;;;;;;14.40;7.13;;;;;;;;;;5012249;28;20199;-66
2023/10/13 03:12:24;;;;;;;11.35;6.47;;;;;;;;;;5008643;28;20172;-66
2023/10/13 03:14:54;;;;;;;14.82;6.97;;;;;;;;;;5011016;28;20190;-66
2023/10/13 03:17:22;;;;;;;15.98;6.07;;;;;;;;;;5009838;28;20171;-65
2023/10/13 03:19:51;;;;;;;11.57;6.55;;;;;;;;;;5010056;28;20195;-66
2023/10/13 03:22:17;;;;;;;10.93;6.80;;;;;;;;;;5006392;28;20193;-67
2023/10/13 03:24:46;;;;;;;13.70;7.00;;;;;;;;;;5011644;28;20555;-65
2023/10/13 03:27:22;;;;;;;10.68;6.72;;;;;;;;;;5008616;28;20191;-66
2023/10/13 03:29:48;;;;;;;15.55;7.30;;;;;;;;;;5009012;28;20205;-66
2023/10/13 03:32:15;;;;;;;16.05;7.38;;;;;;;;;;5011193;28;20588;-66
2023/10/13 03:35:31;;;;;;;16.08;5.97;;;;;;;;;;5011773;28;20171;-66
2023/10/13 03:37:38;;;;;;;17.25;6.65;;;;;;;;;;5004859;28;20183;-66
2023/10/13 03:40:48;;;;;;;12.68;6.55;;;;;;;;;;5009540;28;20206;-66
2023/10/13 03:43:04;;;;;;;12.32;6.13;;;;;;;;;;5010347;28;20190;-66
2023/10/13 03:45:37;;;;;;;15.77;7.32;;;;;;;;;;5011454;28;20171;-66
2023/10/13 03:48:08;;;;;;;11.52;6.53;;;;;;;;;;5010537;28;20622;-67
2023/10/13 03:50:35;;;;;;;15.02;6.68;;;;;;;;;;5011199;28;20621;-67
2023/10/13 03:53:01;;;;;;;10.52;6.63;;;;;;;;;;5012499;28;20175;-66
2023/10/13 03:55:29;;;;;;;14.25;7.43;;;;;;;;;;5006970;28;20233;-67
2023/10/13 03:57:55;;;;;;;14.57;6.75;;;;;;;;;;5007463;28;20186;-67
2023/10/13 04:00:24;;;;;;;11.80;7.45;;;;;;;;;;5009244;28;20199;-67
2023/10/13 04:03:06;;;;;;;13.90;7.70;;;;;;;;;;5007752;28;20191;-67
2023/10/13 04:05:40;;;;;;;14.00;6.78;;;;;;;;;;5011145;28;20175;-67
2023/10/13 04:16:34;;;;;;;13.70;7.90;;;;;;;;;;5009539;28;20256;-66
2023/10/13 04:21:56;;;;;;;11.43;7.25;;;;;;;;;;5014562;28;20195;-66
2023/10/13 04:32:14;;;;;;;13.30;6.88;;;;;;;;;;5009361;28;20198;-66
2023/10/13 04:34:45;;;;;;;11.75;7.82;;;;;;;;;;5012387;28;20823;-66
2023/10/13 04:37:28;;;;;;;10.45;7.15;;;;;;;;;;5008365;28;20179;-66
2023/10/13 04:39:59;;;;;;;14.18;7.40;;;;;;;;;;5012541;28;20588;-67
2023/10/13 04:43:32;;;;;;;13.18;7.68;;;;;;;;;;5007023;28;20175;-67
2023/10/13 04:50:47;;;;;;;8.70;6.90;;;;;;;;;;5013786;28;20212;-67
2023/10/13 04:53:33;;;;;;;12.38;7.00;;;;;;;;;;5013337;28;20673;-67
2023/10/13 05:45:16;;;;;;;17.25;4.63;;;;;;;;;;5011690;28;20232;-66
2023/10/13 06:30:58;;;;;;;11.25;5.55;;;;;;;;;;5009793;28;20268;-66
2023/10/13 06:33:28;;;;;;;10.05;6.05;;;;;;;;;;5007443;28;20175;-65
2023/10/13 06:35:56;;;;;;;12.57;6.55;;;;;;;;;;5012896;28;20642;-65
2023/10/13 06:38:21;;;;;;;11.30;7.15;;;;;;;;;;5011933;28;20187;-66
2023/10/13 06:40:48;;;;;;;9.05;5.60;;;;;;;;;;5011359;28;20202;-66
2023/10/13 06:43:16;;;;;;;11.13;7.43;;;;;;;;;;5010747;28;20565;-66
2023/10/13 06:45:42;;;;;;;10.60;7.55;;;;;;;;;;5010088;28;20563;-65
2023/10/13 06:48:11;;;;;;;11.40;8.50;;;;;;;;;;5010978;28;20178;-66
2023/10/13 06:50:41;;;;;;;13.00;8.60;;;;;;;;;;5012294;28;20597;-66
2023/10/13 06:53:06;;;;;;;10.77;8.63;;;;;;;;;;5010078;28;20666;-66
2023/10/13 06:55:35;;;;;;;15.27;8.05;;;;;;;;;;5007344;28;20182;-65
2023/10/13 06:58:00;;;;;;;17.95;10.05;;;;;;;;;;5009642;28;20178;-65
2023/10/13 07:00:29;;;;;;;16.52;9.88;;;;;;;;;;5008167;28;20337;-66
2023/10/13 07:03:05;;;;;;;17.42;10.32;;;;;;;;;;5011283;28;20221;-66
2023/10/13 07:05:32;;;;;;;17.17;9.82;;;;;;;;;;5011269;28;20561;-64
2023/10/13 07:07:59;;;;;;;15.50;9.40;;;;;;;;;;5006648;28;20190;-65
2023/10/13 07:10:30;;;;;;;14.98;8.82;;;;;;;;;;5008052;28;20718;-64
2023/10/13 07:12:59;;;;;;;13.65;9.60;;;;;;;;;;5012358;28;20646;-65
2023/10/13 07:15:27;;;;;;;14.48;8.95;;;;;;;;;;5009653;28;20167;-63
2023/10/13 07:17:59;;;;;;;19.83;8.93;;;;;;;;;;5010963;28;20174;-66
2023/10/13 07:20:24;;;;;;;14.35;8.48;;;;;;;;;;5007057;28;20257;-66
2023/10/13 07:23:06;;;;;;;13.48;7.75;;;;;;;;;;5007199;28;20192;-66
2023/10/13 07:25:40;;;;;;;19.27;8.20;;;;;;;;;;5004035;28;20408;-66
2023/10/13 07:28:08;;;;;;;15.50;7.43;;;;;;;;;;5003812;28;20558;-66
2023/10/13 07:30:39;;;;;;;15.52;7.35;;;;;;;;;;5008633;28;20207;-66
2023/10/13 07:33:05;;;;;;;13.82;7.15;;;;;;;;;;5008003;28;20175;-65
2023/10/13 07:35:31;;;;;;;16.63;6.93;;;;;;;;;;5011112;28;20600;-67
2023/10/13 07:37:59;;;;;;;11.27;6.55;;;;;;;;;;5007436;28;20168;-65
2023/10/13 07:42:50;;;;;;;17.88;6.93;;;;;;;;;;5008998;28;20228;-66
2023/10/13 07:45:24;;;;;;;10.07;6.28;;;;;;;;;;5008942;28;20206;-66
2023/10/13 07:47:51;;;;;;;12.27;6.68;;;;;;;;;;5007350;28;20173;-66
2023/10/13 07:50:24;;;;;;;12.30;6.30;;;;;;;;;;5005565;28;20234;-66
2023/10/13 07:53:04;;;;;;;11.77;7.65;;;;;;;;;;5009927;28;20203;-65
2023/10/13 07:55:32;;;;;;;13.07;5.63;;;;;;;;;;5004925;28;20167;-65
2023/10/13 07:57:59;;;;;;;14.27;7.18;;;;;;;;;;5008294;28;20178;-66
2023/10/13 08:03:31;;;;;;;13.85;6.10;;;;;;;;;;5009450;28;20187;-66
2023/10/13 08:05:57;;;;;;;15.15;6.10;;;;;;;;;;5010595;28;20190;-66
2023/10/13 08:08:25;;;;;;;15.25;6.65;;;;;;;;;;5002812;28;20171;-67
2023/10/13 08:10:55;;;;;;;13.95;5.65;;;;;;;;;;5009851;28;20229;-64
2023/10/13 08:13:20;;;;;;;13.55;5.70;;;;;;;;;;5009586;28;20276;-66
2023/10/13 08:15:49;;;;;;;12.27;5.38;;;;;;;;;;5003253;28;20658;-65
2023/10/13 08:18:30;;;;;;;18.73;5.72;;;;;;;;;;5009297;28;20174;-65
2023/10/13 08:21:02;;;;;;;11.05;5.00;;;;;;;;;;5003792;28;20194;-66
2023/10/13 08:23:57;;;;;;;10.63;4.90;;;;;;;;;;5009583;28;20218;-65
2023/10/13 08:26:29;;;;;;;10.75;4.93;;;;;;;;;;5009553;28;20182;-67
2023/10/13 08:28:55;;;;;;;9.63;4.75;;;;;;;;;;5005963;28;20181;-67
2023/10/13 08:31:25;;;;;;;16.73;5.00;;;;;;;;;;5023122;23;20234;-66
2023/10/13 08:33:57;;;;;;;9.77;5.03;;;;;;;;;;5010268;28;20179;-66
2023/10/13 08:36:29;;;;;;;8.73;4.55;;;;;;;;;;5009133;28;20171;-66
2023/10/13 08:38:55;;;;;;;11.27;4.43;;;;;;;;;;5011394;28;20174;-66
2023/10/13 08:43:52;;;;;;;9.68;4.90;;;;;;;;;;5011272;28;20171;-66
2023/10/13 08:49:07;;;;;;;10.70;4.50;;;;;;;;;;5011117;28;20324;-67
2023/10/13 08:51:45;;;;;;;16.02;5.38;;;;;;;;;;5011230;28;20210;-66
2023/10/13 08:54:20;;;;;;;13.13;5.15;;;;;;;;;;5006695;28;20526;-67
2023/10/13 08:57:03;;;;;;;9.45;4.88;;;;;;;;;;5010807;28;20182;-67
2023/10/13 08:59:38;;;;;;;10.52;5.22;;;;;;;;;;5011136;28;20174;-66
2023/10/13 09:02:18;;;;;;;14.02;5.03;;;;;;;;;;5011257;28;20178;-67
2023/10/13 09:04:47;;;;;;;13.30;4.80;;;;;;;;;;5008776;28;20220;-67
2023/10/13 09:07:25;;;;;;;8.13;4.50;;;;;;;;;;5009214;28;20657;-67
2023/10/13 09:12:35;;;;;;;7.68;4.80;;;;;;;;;;5012567;28;20257;-67
2023/10/13 09:15:17;;;;;;;10.88;5.32;;;;;;;;;;5015039;28;20182;-66
2023/10/13 09:23:07;;;;;;;14.35;5.53;;;;;;;;;;5015075;28;20582;-67
2023/10/13 09:25:37;;;;;;;10.40;5.10;;;;;;;;;;5013231;28;20182;-66
2023/10/13 09:28:02;;;;;;;9.00;4.68;;;;;;;;;;5014748;28;20171;-67
2023/10/13 09:30:31;;;;;;;8.38;4.22;;;;;;;;;;5014692;28;20213;-66
2023/10/13 09:33:01;;;;;;;16.35;5.45;;;;;;;;;;5013595;28;21061;-67
2023/10/13 09:35:27;;;;;;;12.32;5.10;;;;;;;;;;5014001;28;20270;-66
2023/10/13 09:37:56;;;;;;;13.63;5.88;;;;;;;;;;5014191;28;20330;-67
2023/10/13 09:40:25;;;;;;;10.30;4.35;;;;;;;;;;5014362;28;20202;-66
2023/10/13 09:42:50;;;;;;;13.65;6.20;;;;;;;;;;5013981;28;20224;-67
2023/10/13 09:45:17;;;;;;;9.45;4.25;;;;;;;;;;5013498;28;20182;-66
2023/10/13 09:47:47;;;;;;;12.63;4.68;;;;;;;;;;5014393;28;20665;-66
2023/10/13 09:50:23;;;;;;;12.88;4.18;;;;;;;;;;5014449;28;20210;-67
2023/10/13 09:52:50;;;;;;;11.27;4.65;;;;;;;;;;5014005;28;20244;-67
2023/10/13 09:55:19;;;;;;;15.60;5.93;;;;;;;;;;5014039;28;20559;-67
2023/10/13 09:57:48;;;;;;;13.80;4.78;;;;;;;;;;5014647;28;20189;-67
2023/10/13 10:03:06;;;;;;;17.63;5.45;;;;;;;;;;5011489;28;20230;-67
2023/10/13 10:05:34;;;;;;;12.95;5.53;;;;;;;;;;5013768;28;20657;-67
2023/10/13 10:07:59;;;;;;;23.38;5.95;;;;;;;;;;5013826;28;20182;-67
2023/10/13 10:10:48;;;;;;;9.15;3.88;;;;;;;;;;5012053;28;20603;-66
2023/10/13 10:13:19;;;;;;;16.63;5.05;;;;;;;;;;4999926;28;20290;-67
2023/10/13 10:15:47;;;;;;;11.48;5.07;;;;;;;;;;5012271;28;20237;-66
2023/10/13 10:18:22;;;;;;;10.25;4.95;;;;;;;;;;5013547;28;20202;-66
2023/10/13 10:20:51;;;;;;;9.75;4.53;;;;;;;;;;5013070;28;20210;-66
2023/10/13 10:23:28;;;;;;;17.25;4.97;;;;;;;;;;5013066;28;20266;-67
2023/10/13 10:26:08;;;;;;;13.43;5.18;;;;;;;;;;5014058;28;20214;-67
2023/10/13 10:28:37;;;;;;;15.02;5.70;;;;;;;;;;5013982;28;20174;-67
2023/10/13 10:31:09;;;;;;;12.32;4.47;;;;;;;;;;5011998;28;20218;-67
2023/10/13 10:33:34;;;;;;;12.75;4.85;;;;;;;;;;5011732;28;20175;-67
2023/10/13 10:36:00;;;;;;;12.07;5.00;;;;;;;;;;5009267;28;20245;-67
2023/10/13 10:40:57;;;;;;;9.85;4.45;;;;;;;;;;5010037;28;20206;-67
2023/10/13 10:43:43;;;;;;;14.82;4.43;;;;;;;;;;5011498;28;20175;-67
2023/10/13 10:46:10;;;;;;;9.95;4.13;;;;;;;;;;5010984;28;20183;-66
2023/10/13 10:48:38;;;;;;;11.55;5.28;;;;;;;;;;5009836;28;20609;-67
2023/10/13 10:51:14;;;;;;;9.52;4.53;;;;;;;;;;5011881;28;20218;-67
2023/10/13 10:53:46;;;;;;;9.43;4.40;;;;;;;;;;5012373;28;20175;-67
2023/10/13 10:56:23;;;;;;;16.38;4.85;;;;;;;;;;5010285;28;20167;-67
2023/10/13 10:58:54;;;;;;;9.48;5.57;;;;;;;;;;5011941;28;20179;-68
2023/10/13 11:01:20;;;;;;;9.30;4.13;;;;;;;;;;5009893;28;20213;-67
2023/10/13 11:04:07;;;;;;;18.88;4.85;;;;;;;;;;5010457;28;20562;-66
2023/10/13 11:06:38;;;;;;;12.77;5.25;;;;;;;;;;5010459;28;20680;-67
2023/10/13 11:09:03;;;;;;;16.08;6.38;;;;;;;;;;5011899;28;20266;-67
2023/10/13 11:11:34;;;;;;;21.25;4.97;;;;;;;;;;5011864;28;20282;-67
2023/10/13 11:14:13;;;;;;;16.48;4.82;;;;;;;;;;5011169;28;20278;-66
2023/10/13 11:16:44;;;;;;;12.85;5.47;;;;;;;;;;5010455;28;20171;-66
2023/10/13 11:19:11;;;;;;;14.02;4.78;;;;;;;;;;5010751;28;20179;-66
2023/10/13 11:21:37;;;;;;;10.75;5.20;;;;;;;;;;5011612;28;20810;-66
2023/10/13 11:24:08;;;;;;;16.52;5.60;;;;;;;;;;5011307;28;20182;-66
2023/10/13 11:26:34;;;;;;;9.30;4.25;;;;;;;;;;5012086;28;20182;-66
2023/10/13 11:28:59;;;;;;;11.18;5.43;;;;;;;;;;5011136;28;20183;-67
2023/10/13 11:31:24;;;;;;;12.43;4.27;;;;;;;;;;5010852;28;20211;-66
2023/10/13 11:33:52;;;;;;;14.67;5.00;;;;;;;;;;5011890;28;20409;-67
2023/10/13 11:36:21;;;;;;;15.63;4.60;;;;;;;;;;5011389;28;20487;-66
2023/10/13 11:38:49;;;;;;;10.85;5.15;;;;;;;;;;5011995;28;20255;-67
2023/10/13 11:41:15;;;;;;;17.50;4.93;;;;;;;;;;5010688;28;20686;-66
2023/10/13 11:46:16;;;;;;;12.13;4.57;;;;;;;;;;5011976;28;20163;-67
2023/10/13 11:48:46;;;;;;;11.82;5.53;;;;;;;;;;5009230;28;20662;-67
2023/10/13 11:51:23;;;;;;;13.20;4.80;;;;;;;;;;5011683;28;20199;-67
2023/10/13 11:53:51;;;;;;;16.17;5.10;;;;;;;;;;5010036;28;20170;-66
2023/10/13 11:56:17;;;;;;;16.52;5.18;;;;;;;;;;5009623;28;20642;-68
2023/10/13 11:58:42;;;;;;;12.20;5.55;;;;;;;;;;5011577;28;20182;-67
2023/10/13 12:09:14;;;;;;;12.77;4.67;;;;;;;;;;5011394;28;20171;-67
2023/10/13 12:11:41;;;;;;;15.73;4.70;;;;;;;;;;5008642;28;20931;-67
2023/10/13 12:16:51;;;;;;;17.77;5.70;;;;;;;;;;5011513;28;20178;-68
2023/10/13 12:19:23;;;;;;;11.25;4.97;;;;;;;;;;5010491;28;20593;-67
2023/10/13 12:21:48;;;;;;;12.70;5.65;;;;;;;;;;5011470;28;20203;-68
2023/10/13 12:24:40;;;;;;;14.05;5.15;;;;;;;;;;5010481;28;20179;-67
2023/10/13 12:27:02;;;;;;;13.40;5.25;;;;;;;;;;5010694;28;20187;-68
2023/10/13 12:29:28;;;;;;;11.75;5.40;;;;;;;;;;5011337;28;20483;-67
2023/10/13 12:32:11;;;;;;;18.00;5.57;;;;;;;;;;5009858;28;20235;-67
2023/10/13 12:38:06;;;;;;;20.85;5.00;;;;;;;;;;5009652;28;20260;-67
2023/10/13 12:53:53;;;;;;;13.93;5.45;;;;;;;;;;5009333;28;20245;-68
2023/10/13 12:56:25;;;;;;;13.48;5.80;;;;;;;;;;5008992;28;20178;-68
2023/10/13 12:58:54;;;;;;;13.00;5.05;;;;;;;;;;5011478;28;20233;-67
2023/10/13 13:01:23;;;;;;;15.40;5.38;;;;;;;;;;5008586;28;20202;-66
2023/10/13 13:03:51;;;;;;;12.32;5.10;;;;;;;;;;5011240;28;20175;-66
2023/10/13 13:06:17;;;;;;;11.00;5.28;;;;;;;;;;5011994;28;20175;-67
2023/10/13 13:08:44;;;;;;;18.63;5.05;;;;;;;;;;5015114;28;20179;-67
2023/10/13 13:11:09;;;;;;;13.00;5.40;;;;;;;;;;5012413;28;20225;-67
2023/10/13 13:13:34;;;;;;;16.27;6.10;;;;;;;;;;5012142;28;20650;-67
2023/10/13 13:16:00;;;;;;;20.05;6.55;;;;;;;;;;5014476;28;20182;-67
2023/10/13 13:18:25;;;;;;;20.15;6.13;;;;;;;;;;5014958;28;20189;-67
2023/10/13 13:20:54;;;;;;;20.73;6.07;;;;;;;;;;5014351;28;20214;-66
2023/10/13 13:23:19;;;;;;;16.88;6.47;;;;;;;;;;5014198;28;20172;-67
2023/10/13 13:25:45;;;;;;;14.23;6.30;;;;;;;;;;5012719;28;20179;-67
2023/10/13 13:28:11;;;;;;;17.60;5.75;;;;;;;;;;5013963;28;20262;-67
2023/10/13 13:30:37;;;;;;;16.40;6.63;;;;;;;;;;5012610;28;20210;-67
2023/10/13 13:33:10;;;;;;;14.95;6.05;;;;;;;;;;5009043;28;20214;-67
2023/10/13 13:35:36;;;;;;;20.88;6.30;;;;;;;;;;5011906;28;20178;-67
2023/10/13 13:38:16;;;;;;;25.13;5.80;;;;;;;;;;5011962;28;20183;-66
2023/10/13 13:40:44;;;;;;;14.52;6.40;;;;;;;;;;5011718;28;20678;-66
2023/10/13 13:43:17;;;;;;;10.43;5.40;;;;;;;;;;5017778;28;20673;-67
2023/10/13 13:45:44;;;;;;;17.23;6.38;;;;;;;;;;5009826;28;20654;-66
2023/10/13 13:48:15;;;;;;;8.07;5.53;;;;;;;;;;5010920;28;20187;-66
2023/10/13 13:50:41;;;;;;;12.45;5.20;;;;;;;;;;5010842;28;20755;-66
2023/10/13 13:53:09;;;;;;;10.50;5.80;;;;;;;;;;5010785;28;20354;-67
2023/10/13 13:55:35;;;;;;;10.73;5.32;;;;;;;;;;5010493;28;20171;-66
2023/10/13 13:58:00;;;;;;;14.13;6.05;;;;;;;;;;5010597;28;20175;-66
2023/10/13 14:00:38;;;;;;;13.18;6.10;;;;;;;;;;5010622;28;20662;-67
2023/10/13 14:03:12;;;;;;;19.05;6.50;;;;;;;;;;5012578;28;20182;-66
2023/10/13 14:05:41;;;;;;;12.05;6.43;;;;;;;;;;5013945;28;20209;-65
2023/10/13 14:08:11;;;;;;;16.17;6.05;;;;;;;;;;5013879;28;20178;-66
2023/10/13 14:11:13;;;;;;;12.45;6.25;;;;;;;;;;5014195;28;20207;-66
2023/10/13 14:13:47;;;;;;;11.45;5.75;;;;;;;;;;5013589;28;20175;-66
2023/10/13 14:16:16;;;;;;;20.02;6.57;;;;;;;;;;5009907;28;20187;-66
2023/10/13 14:18:42;;;;;;;15.75;6.75;;;;;;;;;;5012606;28;20174;-66
2023/10/13 14:21:07;;;;;;;15.63;7.03;;;;;;;;;;5013470;28;20543;-66
2023/10/13 14:23:34;;;;;;;19.42;6.45;;;;;;;;;;5013630;28;20186;-66
2023/10/13 14:25:59;;;;;;;18.15;6.10;;;;;;;;;;5016795;28;20178;-66
2023/10/13 14:28:32;;;;;;;12.93;6.05;;;;;;;;;;5012343;28;20187;-65
2023/10/13 14:30:57;;;;;;;15.85;6.03;;;;;;;;;;5012535;28;20289;-66
2023/10/13 14:33:25;;;;;;;19.08;6.75;;;;;;;;;;5013467;28;20584;-66
2023/10/13 14:35:50;;;;;;;11.77;6.72;;;;;;;;;;5013914;28;20206;-66
2023/10/13 14:38:16;;;;;;;15.68;5.72;;;;;;;;;;5013608;28;20252;-66
2023/10/13 14:40:41;;;;;;;13.02;6.10;;;;;;;;;;5013168;28;20283;-66
2023/10/13 14:43:08;;;;;;;12.88;7.05;;;;;;;;;;5012247;28;20684;-67
2023/10/13 14:45:35;;;;;;;13.85;6.63;;;;;;;;;;5013207;28;20722;-67
2023/10/13 14:48:01;;;;;;;16.13;6.47;;;;;;;;;;5011983;28;20215;-67
2023/10/13 14:50:28;;;;;;;14.15;6.03;;;;;;;;;;5013048;28;20233;-66
2023/10/13 14:52:53;;;;;;;16.95;6.57;;;;;;;;;;5012973;28;20255;-67
2023/10/13 14:55:18;;;;;;;17.10;5.75;;;;;;;;;;5013319;28;20265;-67
2023/10/13 14:57:44;;;;;;;18.92;6.97;;;;;;;;;;5012820;28;20552;-66
2023/10/13 15:00:13;;;;;;;12.10;7.07;;;;;;;;;;5010758;28;20194;-66
2023/10/13 15:02:38;;;;;;;10.77;6.70;;;;;;;;;;5012908;28;20199;-66
2023/10/13 15:05:03;;;;;;;15.85;6.70;;;;;;;;;;5017126;28;20493;-67
2023/10/13 15:07:28;;;;;;;17.63;7.20;;;;;;;;;;5009698;28;20227;-66
2023/10/13 15:09:56;;;;;;;16.60;6.80;;;;;;;;;;5016895;28;20202;-67
2023/10/13 15:12:22;;;;;;;18.95;7.78;;;;;;;;;;5012208;28;20254;-66
2023/10/13 15:14:47;;;;;;;13.70;6.30;;;;;;;;;;5012384;28;20274;-67
2023/10/13 15:17:15;;;;;;;17.45;5.95;;;;;;;;;;5011279;28;20254;-67
2023/10/13 15:19:42;;;;;;;14.90;6.70;;;;;;;;;;5012439;28;20219;-67
2023/10/13 15:22:21;;;;;;;12.82;6.72;;;;;;;;;;5012409;28;20199;-67
2023/10/13 15:24:59;;;;;;;17.70;6.07;;;;;;;;;;5009515;28;20185;-67
2023/10/13 15:27:24;;;;;;;12.18;6.35;;;;;;;;;;5012415;28;20726;-67
2023/10/13 15:29:50;;;;;;;12.32;6.10;;;;;;;;;;5012017;28;20289;-67
2023/10/13 15:35:00;;;;;;;13.45;6.60;;;;;;;;;;5011533;28;20181;-67
2023/10/13 15:37:25;;;;;;;15.20;5.75;;;;;;;;;;5012089;28;20638;-67
2023/10/13 15:39:50;;;;;;;13.63;6.07;;;;;;;;;;5012635;28;20175;-68
2023/10/13 15:42:16;;;;;;;15.85;5.88;;;;;;;;;;5012206;28;20236;-67
2023/10/13 15:44:43;;;;;;;15.70;6.45;;;;;;;;;;5009093;28;20190;-67
2023/10/13 15:47:12;;;;;;;14.05;6.97;;;;;;;;;;5010349;28;20205;-67
2023/10/13 15:49:37;;;;;;;13.93;6.38;;;;;;;;;;5006596;28;20241;-68
2023/10/13 15:52:03;;;;;;;12.48;5.63;;;;;;;;;;5011934;28;20265;-68
2023/10/13 15:54:29;;;;;;;13.40;7.15;;;;;;;;;;5010858;28;20694;-68
2023/10/13 15:56:57;;;;;;;14.70;6.43;;;;;;;;;;5011799;28;20217;-68
2023/10/13 15:59:24;;;;;;;13.25;6.43;;;;;;;;;;5011585;28;20685;-67
2023/10/13 16:01:54;;;;;;;11.85;6.88;;;;;;;;;;5011784;28;20374;-68
2023/10/13 16:04:19;;;;;;;12.52;6.45;;;;;;;;;;5011673;28;20244;-66
2023/10/13 16:06:50;;;;;;;10.75;6.38;;;;;;;;;;5010971;28;20230;-67
2023/10/13 16:09:24;;;;;;;17.10;6.32;;;;;;;;;;5011077;28;20198;-66
2023/10/13 16:11:52;;;;;;;14.10;6.78;;;;;;;;;;5009018;28;20667;-66
2023/10/13 16:14:18;;;;;;;13.93;7.18;;;;;;;;;;5012077;28;20229;-67
2023/10/13 16:16:44;;;;;;;19.60;6.50;;;;;;;;;;5011491;28;20167;-67
2023/10/13 16:19:10;;;;;;;14.48;6.32;;;;;;;;;;5012020;28;20606;-67
2023/10/13 16:21:39;;;;;;;17.20;7.35;;;;;;;;;;5011481;28;20190;-67
2023/10/13 16:24:04;;;;;;;10.07;6.07;;;;;;;;;;5010337;28;20189;-67
2023/10/13 16:26:30;;;;;;;13.05;6.05;;;;;;;;;;5011215;28;20175;-67
2023/10/13 16:28:57;;;;;;;12.55;6.40;;;;;;;;;;5011648;28;20646;-67
2023/10/13 16:31:23;;;;;;;15.65;6.07;;;;;;;;;;5012398;28;20210;-67
2023/10/13 16:33:48;;;;;;;8.95;5.43;;;;;;;;;;5013429;28;20254;-67
2023/10/13 16:36:13;;;;;;;12.95;6.20;;;;;;;;;;5011271;28;20202;-67
2023/10/13 16:38:39;;;;;;;12.30;6.55;;;;;;;;;;5010487;28;20560;-66
2023/10/13 16:41:06;;;;;;;12.40;6.30;;;;;;;;;;5009696;28;20210;-67
2023/10/13 16:43:35;;;;;;;15.68;6.38;;;;;;;;;;5011222;28;20228;-67
2023/10/13 16:46:01;;;;;;;22.35;7.43;;;;;;;;;;5011669;28;20538;-67
2023/10/13 16:48:30;;;;;;;15.32;6.50;;;;;;;;;;5011346;28;20179;-67
2023/10/13 16:50:58;;;;;;;16.10;6.32;;;;;;;;;;5011003;28;20209;-66
2023/10/13 16:53:23;;;;;;;20.80;6.93;;;;;;;;;;5009819;28;20264;-67
2023/10/13 16:55:49;;;;;;;13.00;6.10;;;;;;;;;;5010871;28;20198;-67
2023/10/13 16:58:14;;;;;;;14.70;7.40;;;;;;;;;;5011441;28;20236;-67
2023/10/13 17:00:51;;;;;;;14.52;6.22;;;;;;;;;;5007903;28;20225;-66
2023/10/13 17:03:17;;;;;;;17.90;7.78;;;;;;;;;;5008287;28;20261;-67
2023/10/13 17:05:42;;;;;;;15.07;7.40;;;;;;;;;;5007997;28;20310;-67
2023/10/13 17:08:07;;;;;;;17.52;8.55;;;;;;;;;;5007448;28;20262;-67
2023/10/13 17:10:33;;;;;;;15.73;7.18;;;;;;;;;;5008400;28;20203;-67
2023/10/13 17:13:01;;;;;;;18.95;7.38;;;;;;;;;;5008263;28;20674;-68
2023/10/13 17:15:31;;;;;;;17.02;6.95;;;;;;;;;;5011123;28;20270;-67
2023/10/13 17:17:57;;;;;;;15.63;8.60;;;;;;;;;;5011043;28;20171;-67
2023/10/13 17:20:23;;;;;;;15.73;7.25;;;;;;;;;;5011386;28;20209;-67
2023/10/13 17:22:48;;;;;;;20.45;7.93;;;;;;;;;;5011165;28;20250;-67
2023/10/13 17:25:13;;;;;;;16.25;8.10;;;;;;;;;;5010700;28;20269;-67
2023/10/13 17:27:45;;;;;;;15.27;7.38;;;;;;;;;;5009105;28;20198;-66
2023/10/13 17:30:11;;;;;;;17.10;7.05;;;;;;;;;;5010693;28;20207;-66
2023/10/13 17:32:36;;;;;;;17.35;8.63;;;;;;;;;;5010327;28;20193;-66
2023/10/13 17:35:03;;;;;;;13.18;7.25;;;;;;;;;;5011856;28;20179;-66
2023/10/13 17:37:33;;;;;;;20.38;7.30;;;;;;;;;;5014753;28;20210;-66
2023/10/13 17:40:01;;;;;;;20.50;8.23;;;;;;;;;;5010736;28;20206;-67
2023/10/13 17:42:27;;;;;;;21.77;9.48;;;;;;;;;;5017283;28;20171;-67